Time;durP1;ratioP1;P1;durP2;ratioP2;P2;SDS_P1;SDS_P2;PMS_P1;PMS_P2;Temp;Humidity;BMP_temperature;BMP_pressure;BME280_temperature;BME280_humidity;BME280_pressure;Samples;Min_cycle;Max_cycle;Signal;HPM_P1;HPM_P2
2022/01/25 00:24:20;;;;;;;;;;;;;;;-6.97;74.14;101191.38;5052539;28;602;-57
2022/01/25 00:27:01;;;;;;;;;;;;;;;-6.89;73.61;101190.94;5081088;28;1064;-57
2022/01/25 00:30:24;;;;;;;;;;;;;;;-6.79;72.36;101191.03;5094692;28;819;-58
2022/01/25 00:32:16;;;;;;;;;;;;;;;-6.79;71.42;101188.34;5087174;28;1352;-57
2022/01/25 00:34:43;;;;;;;;;;;;;;;-6.70;71.58;101187.91;5094606;28;866;-58
2022/01/25 00:37:09;;;;;;;;;;;;;;;-6.72;70.89;101185.47;5094533;28;1944;-57
2022/01/25 00:39:38;;;;;;;;;;;;;;;-6.73;70.82;101188.41;5094454;28;855;-58
2022/01/25 00:42:05;;;;;;;;;;;;;;;-7.01;70.87;101187.56;5094403;28;901;-57
2022/01/25 00:44:36;;;;;;;;;;;;;;;-7.22;71.97;101184.63;5094347;28;826;-58
2022/01/25 00:47:05;;;;;;;;;;;;;;;-7.35;72.23;101182.31;5093063;28;1299;-58
2022/01/25 00:49:36;;;;;;;;;;;;;;;-7.13;71.70;101178.81;5094199;28;862;-57
2022/01/25 00:52:17;;;;;;;;;;;;;;;-6.87;70.44;101183.44;5094113;28;811;-57
2022/01/25 00:54:44;;;;;;;;;;;;;;;-6.45;69.33;101182.78;5094195;28;862;-58
2022/01/25 00:57:11;;;;;;;;;;;;;;;-6.46;68.56;101173.09;5094106;28;1949;-58
2022/01/25 00:59:37;;;;;;;;;;;;;;;-6.58;68.46;101185.88;5094158;28;873;-57
2022/01/25 01:02:06;;;;;;;;;;;;;;;-6.84;68.86;101176.75;5093999;28;874;-58
2022/01/25 01:04:33;;;;;;;;;;;;;;;-7.07;69.65;101177.81;5094062;28;878;-57
2022/01/25 01:07:02;;;;;;;;;;;;;;;-7.26;70.19;101175.44;5092656;28;1459;-58
2022/01/25 01:09:34;;;;;;;;;;;;;;;-7.11;70.44;101171.31;5093578;28;822;-58
2022/01/25 01:12:07;;;;;;;;;;;;;;;-6.62;68.79;101166.75;5093821;28;870;-58
2022/01/25 01:15:02;;;;;;;;;;;;;;;-6.46;68.30;101153.44;5094088;28;882;-58
2022/01/25 01:31:10;;;;;;;;;;;;;;;-7.19;69.83;101153.75;5093822;28;624;-57
2022/01/25 01:42:00;;;;;;;;;;;;;;;-7.41;70.72;101124.22;5093772;28;688;-58
2022/01/25 01:44:37;;;;;;;;;;;;;;;-7.38;70.75;101126.41;5093298;28;822;-57
2022/01/25 01:47:08;;;;;;;;;;;;;;;-7.02;69.87;101132.19;5092107;28;982;-58
2022/01/25 01:49:41;;;;;;;;;;;;;;;-7.10;68.97;101130.78;5093100;28;850;-57
2022/01/25 01:52:08;;;;;;;;;;;;;;;-6.96;68.17;101128.47;5093184;28;882;-58
2022/01/25 01:54:35;;;;;;;;;;;;;;;-6.97;68.25;101124.19;5093088;28;790;-58
2022/01/25 01:57:02;;;;;;;;;;;;;;;-7.20;68.86;101118.00;5092861;28;1886;-58
2022/01/25 01:59:29;;;;;;;;;;;;;;;-7.35;69.75;101115.16;5092994;28;786;-57
2022/01/25 02:01:56;;;;;;;;;;;;;;;-7.43;69.81;101112.91;5092875;28;878;-58
2022/01/25 02:04:23;;;;;;;;;;;;;;;-7.65;69.78;101108.34;5092840;28;875;-57
2022/01/25 02:06:49;;;;;;;;;;;;;;;-7.69;70.85;101109.09;5092979;28;937;-58
2022/01/25 02:09:15;;;;;;;;;;;;;;;-7.60;70.45;101089.59;5092740;28;889;-58
2022/01/25 02:11:42;;;;;;;;;;;;;;;-7.42;70.58;101095.75;5092732;28;787;-58
2022/01/25 02:14:12;;;;;;;;;;;;;;;-7.31;70.45;101100.16;5092602;28;814;-58
2022/01/25 02:24:47;;;;;;;;;;;;;;;-6.76;69.11;101087.56;5092771;28;639;-58
2022/01/25 02:27:14;;;;;;;;;;;;;;;-6.70;68.56;101091.91;5092545;28;822;-58
2022/01/25 02:29:41;;;;;;;;;;;;;;;-6.54;68.07;101090.16;5092688;28;843;-57
2022/01/25 02:32:08;;;;;;;;;;;;;;;-6.15;67.51;101079.13;5092324;28;893;-57
2022/01/25 02:34:35;;;;;;;;;;;;;;;-6.03;66.36;101079.75;5092314;28;991;-58
2022/01/25 02:37:04;;;;;;;;;;;;;;;-6.00;66.00;101073.03;5092150;28;1894;-57
2022/01/25 02:39:30;;;;;;;;;;;;;;;-5.84;65.64;101079.28;5092406;28;826;-57
2022/01/25 02:41:57;;;;;;;;;;;;;;;-5.89;65.66;101071.97;5092317;28;826;-58
2022/01/25 02:44:24;;;;;;;;;;;;;;;-5.89;65.69;101074.66;5092176;28;827;-57
2022/01/25 02:49:18;;;;;;;;;;;;;;;-5.67;64.81;101060.25;5092188;28;782;-58
2022/01/25 02:51:46;;;;;;;;;;;;;;;-5.57;64.13;101062.97;5092054;28;791;-58
2022/01/25 02:54:13;;;;;;;;;;;;;;;-5.49;64.15;101067.06;5091868;28;890;-57
2022/01/25 02:56:42;;;;;;;;;;;;;;;-5.51;64.00;101063.81;5091902;28;1941;-57
2022/01/25 02:59:09;;;;;;;;;;;;;;;-5.59;64.31;101063.25;5124365;27;838;-57
2022/01/25 03:01:36;;;;;;;;;;;;;;;-5.57;64.11;101055.72;5092647;28;767;-58
2022/01/25 03:04:04;;;;;;;;;;;;;;;-5.43;63.54;101061.41;5092386;28;952;-57
2022/01/25 03:06:30;;;;;;;;;;;;;;;-5.47;63.78;101063.00;5092358;28;846;-57
2022/01/25 03:08:57;;;;;;;;;;;;;;;-5.49;63.68;101056.28;5091837;28;831;-57
2022/01/25 03:11:25;;;;;;;;;;;;;;;-5.38;63.44;101053.31;5092418;28;748;-57
2022/01/25 03:13:54;;;;;;;;;;;;;;;-5.40;63.27;101054.66;5091992;28;878;-57
2022/01/25 03:16:39;;;;;;;;;;;;;;;-5.36;63.34;101053.88;5089968;28;1974;-58
2022/01/25 03:19:41;;;;;;;;;;;;;;;-5.36;63.24;101053.88;5092508;28;755;-57
2022/01/25 03:21:55;;;;;;;;;;;;;;;-5.32;63.26;101047.97;5091430;28;1495;-57
2022/01/25 03:24:21;;;;;;;;;;;;;;;-5.40;63.77;101051.97;5090581;28;954;-57
2022/01/25 03:26:48;;;;;;;;;;;;;;;-5.42;63.79;101037.97;5092562;28;833;-57
2022/01/25 03:29:14;;;;;;;;;;;;;;;-5.40;63.66;101041.19;5092430;28;856;-57
2022/01/25 03:31:41;;;;;;;;;;;;;;;-5.37;63.75;101043.38;5091605;28;838;-57
2022/01/25 03:34:07;;;;;;;;;;;;;;;-5.35;63.48;101030.44;5095628;28;814;-57
2022/01/25 03:36:34;;;;;;;;;;;;;;;-5.30;63.41;101040.44;5095607;28;1885;-58
2022/01/25 03:39:00;;;;;;;;;;;;;;;-5.38;63.29;101029.06;5095590;28;803;-57
2022/01/25 03:41:26;;;;;;;;;;;;;;;-5.34;63.93;101032.06;5095630;28;822;-57
2022/01/25 03:43:55;;;;;;;;;;;;;;;-5.37;63.33;101033.41;5095602;28;838;-57
2022/01/25 03:46:39;;;;;;;;;;;;;;;-5.36;63.69;101028.81;5095599;28;881;-57
2022/01/25 03:51:51;;;;;;;;;;;;;;;-5.30;63.84;101027.75;5095392;28;637;-57
2022/01/25 03:54:18;;;;;;;;;;;;;;;-5.29;63.80;101026.69;5095333;28;842;-57
2022/01/25 03:56:45;;;;;;;;;;;;;;;-5.20;63.09;101022.41;5095319;28;1941;-57
2022/01/25 03:59:11;;;;;;;;;;;;;;;-5.16;62.64;101034.25;5095295;28;838;-57
2022/01/25 04:01:38;;;;;;;;;;;;;;;-5.19;63.00;101023.19;5095243;28;889;-57
2022/01/25 04:04:10;;;;;;;;;;;;;;;-5.15;63.12;101030.47;5095123;28;898;-57
2022/01/25 04:06:37;;;;;;;;;;;;;;;-5.11;62.86;101028.06;5095169;28;889;-57
2022/01/25 04:09:05;;;;;;;;;;;;;;;-5.12;62.63;101021.06;5095019;28;857;-57
2022/01/25 04:11:32;;;;;;;;;;;;;;;-5.10;62.45;101021.59;5095104;28;799;-57
2022/01/25 04:13:59;;;;;;;;;;;;;;;-5.08;61.53;101011.34;5095006;28;889;-56
2022/01/25 04:16:36;;;;;;;;;;;;;;;-5.01;61.83;101019.19;5094485;28;1898;-57
2022/01/25 04:26:47;;;;;;;;;;;;;;;-5.06;62.25;101017.28;5094806;28;629;-57
2022/01/25 04:29:13;;;;;;;;;;;;;;;-5.01;61.66;101020.00;5094725;28;848;-57
2022/01/25 04:31:40;;;;;;;;;;;;;;;-5.04;61.76;101022.41;5094770;28;862;-57
2022/01/25 04:36:55;;;;;;;;;;;;;;;-5.14;62.19;101021.31;5094485;28;1882;-57
2022/01/25 04:53:16;;;;;;;;;;;;;;;-5.17;62.09;101037.22;5072428;28;1238;-57
2022/01/25 04:56:24;;;;;;;;;;;;;;;-5.11;61.73;101029.97;5094437;28;1893;-57
2022/01/25 04:58:45;;;;;;;;;;;;;;;-5.17;61.75;101032.63;5091875;28;1575;-57
2022/01/25 05:01:12;;;;;;;;;;;;;;;-5.29;62.31;101028.56;5094101;28;838;-57
2022/01/25 05:03:56;;;;;;;;;;;;;;;-5.36;62.48;101020.72;5094053;28;799;-57
2022/01/25 05:06:22;;;;;;;;;;;;;;;-5.34;62.86;101019.38;5094059;28;918;-57
2022/01/25 05:08:53;;;;;;;;;;;;;;;-5.26;62.18;101022.66;5094026;28;872;-57
2022/01/25 05:11:33;;;;;;;;;;;;;;;-5.29;62.41;101021.31;5093827;28;1280;-57
2022/01/25 05:16:34;;;;;;;;;;;;;;;-5.47;63.05;101024.47;5093450;28;1913;-57
2022/01/25 05:22:03;;;;;;;;;;;;;;;-5.51;63.38;101021.50;5093725;28;967;-57
2022/01/25 05:22:18;;;;;;;;;;;;;;;-5.56;63.57;101019.59;5093218;28;968;-57
2022/01/25 05:24:45;;;;;;;;;;;;;;;-5.56;63.83;101025.00;5094022;28;893;-57
2022/01/25 05:27:13;;;;;;;;;;;;;;;-5.53;63.48;101020.94;5094413;28;747;-57
2022/01/25 05:29:40;;;;;;;;;;;;;;;-5.56;63.45;101014.22;5093741;28;853;-57
2022/01/25 05:32:07;;;;;;;;;;;;;;;-5.58;63.91;101020.94;5094284;28;767;-57
2022/01/25 05:34:33;;;;;;;;;;;;;;;-5.64;63.73;101022.81;5093953;28;862;-57
2022/01/25 05:37:00;;;;;;;;;;;;;;;-5.66;64.47;101021.47;5093507;28;1944;-57
2022/01/25 05:39:31;;;;;;;;;;;;;;;-5.69;64.57;101030.88;5093625;28;874;-57
2022/01/25 05:42:16;;;;;;;;;;;;;;;-5.73;64.73;101032.47;5093353;28;834;-57
2022/01/25 05:47:14;;;;;;;;;;;;;;;-5.67;64.76;101038.72;5093307;28;909;-57
2022/01/25 05:49:43;;;;;;;;;;;;;;;-5.58;64.40;101026.34;5093307;28;818;-57
2022/01/25 05:52:10;;;;;;;;;;;;;;;-5.55;63.95;101032.03;5093097;28;877;-57
2022/01/25 05:54:37;;;;;;;;;;;;;;;-5.46;63.78;101023.41;5091791;28;1573;-57
2022/01/25 05:57:04;;;;;;;;;;;;;;;-5.39;63.97;101026.66;5091955;28;1863;-57
2022/01/25 05:59:30;;;;;;;;;;;;;;;-5.29;63.76;101032.09;5092992;28;806;-57
2022/01/25 06:01:57;;;;;;;;;;;;;;;-5.14;63.81;101032.13;5092938;28;1048;-57
2022/01/25 06:04:24;;;;;;;;;;;;;;;-5.09;63.65;101035.91;5092935;28;927;-57
2022/01/25 06:06:51;;;;;;;;;;;;;;;-5.15;63.83;101025.09;5093045;28;842;-57
2022/01/25 06:09:17;;;;;;;;;;;;;;;-5.11;63.96;101029.97;5092732;28;861;-57
2022/01/25 06:11:44;;;;;;;;;;;;;;;-5.20;64.05;101030.47;5092841;28;830;-57
2022/01/25 06:14:11;;;;;;;;;;;;;;;-5.34;64.36;101032.84;5092719;28;803;-57
2022/01/25 06:16:37;;;;;;;;;;;;;;;-5.43;64.23;101039.84;5092190;28;1909;-57
2022/01/25 06:19:03;;;;;;;;;;;;;;;-5.44;63.91;101035.56;5092651;28;815;-57
2022/01/25 06:21:29;;;;;;;;;;;;;;;-5.39;63.84;101038.25;5092887;28;826;-57
2022/01/25 06:23:56;;;;;;;;;;;;;;;-5.36;64.10;101039.59;5092678;28;869;-57
2022/01/25 06:26:22;;;;;;;;;;;;;;;-5.29;63.93;101037.47;5092655;28;878;-57
2022/01/25 06:28:49;;;;;;;;;;;;;;;-5.16;64.00;101044.25;5091413;28;1312;-57
2022/01/25 06:31:17;;;;;;;;;;;;;;;-5.00;63.80;101036.97;5092577;28;878;-57
2022/01/25 06:33:44;;;;;;;;;;;;;;;-4.83;63.60;101039.41;5092586;28;799;-57
2022/01/25 06:36:12;;;;;;;;;;;;;;;-4.61;63.30;101036.44;5092302;28;1882;-57
2022/01/25 06:38:38;;;;;;;;;;;;;;;-4.39;62.56;101028.06;5092215;28;837;-57
2022/01/25 06:41:05;;;;;;;;;;;;;;;-4.34;61.78;101034.25;5090997;28;1178;-57
2022/01/25 06:43:32;;;;;;;;;;;;;;;-4.19;61.26;101030.72;5092284;28;827;-57
2022/01/25 06:46:03;;;;;;;;;;;;;;;-4.02;60.72;101027.72;5092409;28;815;-57
2022/01/25 06:48:30;;;;;;;;;;;;;;;-3.74;60.13;101025.44;5092033;28;917;-57
2022/01/25 06:50:57;;;;;;;;;;;;;;;-3.27;59.78;101018.72;5092099;28;822;-57
2022/01/25 06:53:23;;;;;;;;;;;;;;;-2.77;59.42;101027.59;5092076;28;869;-57
2022/01/25 06:55:50;;;;;;;;;;;;;;;-2.62;57.70;101018.53;5091977;28;1886;-57
2022/01/25 06:58:16;;;;;;;;;;;;;;;-2.82;57.63;101013.28;5092088;28;871;-57
2022/01/25 07:00:42;;;;;;;;;;;;;;;-2.98;57.55;101008.00;5091939;28;951;-57
2022/01/25 07:03:09;;;;;;;;;;;;;;;-3.22;57.37;101017.88;5090572;28;1328;-57
2022/01/25 07:05:35;;;;;;;;;;;;;;;-3.37;57.42;101016.06;5091846;28;928;-57
2022/01/25 07:08:02;;;;;;;;;;;;;;;-3.45;58.03;101022.09;5091590;28;770;-57
2022/01/25 07:10:29;;;;;;;;;;;;;;;-3.61;58.26;101010.53;5091954;28;798;-57
2022/01/25 07:12:55;;;;;;;;;;;;;;;-3.67;58.96;101020.53;5092047;28;806;-57
2022/01/25 07:15:22;;;;;;;;;;;;;;;-3.61;59.14;101014.03;5091771;28;1236;-57
2022/01/25 07:17:50;;;;;;;;;;;;;;;-3.58;58.15;101021.59;5091676;28;1988;-57
2022/01/25 07:20:17;;;;;;;;;;;;;;;-3.52;59.14;101011.56;5091853;28;894;-57
2022/01/25 07:22:43;;;;;;;;;;;;;;;-3.56;58.49;101007.81;5091887;28;806;-57
2022/01/25 07:25:10;;;;;;;;;;;;;;;-3.40;58.35;101016.66;5091955;28;826;-57
2022/01/25 07:27:37;;;;;;;;;;;;;;;-3.10;57.51;101013.75;5092082;28;846;-57
2022/01/25 07:30:04;;;;;;;;;;;;;;;-3.00;56.67;101007.47;5091893;28;842;-57
2022/01/25 07:32:31;;;;;;;;;;;;;;;-2.73;57.06;101006.16;5092025;28;850;-57
2022/01/25 07:34:58;;;;;;;;;;;;;;;-2.61;57.22;101014.72;5091812;28;897;-57
2022/01/25 07:37:25;;;;;;;;;;;;;;;-2.43;56.72;100996.97;5091708;28;1905;-57
2022/01/25 07:39:51;;;;;;;;;;;;;;;-2.26;55.84;100999.25;5091697;28;842;-57
2022/01/25 07:42:18;;;;;;;;;;;;;;;-2.28;55.82;101002.22;5092214;28;881;-57
2022/01/25 07:44:45;;;;;;;;;;;;;;;-2.23;55.95;100997.84;5091473;28;854;-57
2022/01/25 07:47:11;;;;;;;;;;;;;;;-2.49;55.97;100995.41;5091631;28;854;-56
2022/01/25 07:49:38;;;;;;;;;;;;;;;-2.42;55.51;100989.66;5091415;28;846;-57
2022/01/25 07:52:05;;;;;;;;;;;;;;;-2.67;55.50;100991.50;5091373;28;830;-57
2022/01/25 07:54:32;;;;;;;;;;;;;;;-2.44;55.25;100992.63;5091324;28;882;-57
2022/01/25 07:56:58;;;;;;;;;;;;;;;-2.26;54.95;100994.63;5091251;28;1981;-57
2022/01/25 07:59:25;;;;;;;;;;;;;;;-2.05;54.87;100991.66;5091310;28;886;-57
2022/01/25 08:01:52;;;;;;;;;;;;;;;-1.76;53.97;100985.38;5091194;28;900;-57
2022/01/25 08:04:18;;;;;;;;;;;;;;;-1.90;53.70;100994.22;5091294;28;909;-56
2022/01/25 08:06:45;;;;;;;;;;;;;;;-2.15;54.26;100987.19;5091151;28;847;-56
2022/01/25 08:09:11;;;;;;;;;;;;;;;-2.11;53.80;100990.94;5091138;28;901;-56
2022/01/25 08:11:38;;;;;;;;;;;;;;;-1.92;54.25;100987.47;5089870;28;1539;-56
2022/01/25 08:14:12;;;;;;;;;;;;;;;-1.69;53.59;100988.53;5091197;28;889;-56
2022/01/25 08:16:40;;;;;;;;;;;;;;;-1.48;53.88;100987.16;5089423;28;1918;-56
2022/01/25 08:19:06;;;;;;;;;;;;;;;-1.58;52.46;100989.19;5091593;28;803;-56
2022/01/25 08:21:33;;;;;;;;;;;;;;;-1.88;53.36;100978.47;5095235;28;917;-56
2022/01/25 08:23:59;;;;;;;;;;;;;;;-1.78;53.20;100976.72;5094960;28;925;-57
2022/01/25 08:26:26;;;;;;;;;;;;;;;-1.93;53.40;100983.16;5095093;28;806;-56
2022/01/25 08:28:52;;;;;;;;;;;;;;;-2.10;53.40;100983.63;5094946;28;886;-56
2022/01/25 08:31:20;;;;;;;;;;;;;;;-2.07;54.09;100983.84;5093585;28;859;-57
2022/01/25 08:33:47;;;;;;;;;;;;;;;-1.91;53.40;100991.78;5094776;28;1018;-57
2022/01/25 08:36:13;;;;;;;;;;;;;;;-1.89;52.77;100976.84;5094813;28;1952;-57
2022/01/25 08:38:41;;;;;;;;;;;;;;;-1.69;53.69;100975.78;5094838;28;815;-56
2022/01/25 08:41:07;;;;;;;;;;;;;;;-1.54;53.19;100976.69;5094784;28;834;-57
2022/01/25 08:43:34;;;;;;;;;;;;;;;-1.67;51.63;100972.78;5094574;28;913;-57
2022/01/25 08:46:02;;;;;;;;;;;;;;;-1.90;52.40;100974.44;5094613;28;823;-56
2022/01/25 08:48:29;;;;;;;;;;;;;;;-2.03;52.53;100977.84;5094944;28;894;-57
2022/01/25 08:50:55;;;;;;;;;;;;;;;-2.04;53.57;100984.38;5094516;28;937;-56
2022/01/25 08:53:22;;;;;;;;;;;;;;;-1.97;52.36;100982.09;5094402;28;873;-56
2022/01/25 08:55:47;;;;;;;;;;;;;;;-1.86;52.36;100972.75;5095227;28;803;-56
2022/01/25 08:58:14;;;;;;;;;;;;;;;-1.92;52.36;100947.63;5094411;28;810;-56
2022/01/25 09:00:40;;;;;;;;;;;;;;;-2.02;52.33;100969.44;5094161;28;827;-56
2022/01/25 09:03:07;;;;;;;;;;;;;;;-1.98;53.52;100969.66;5094103;28;864;-56
2022/01/25 09:05:34;;;;;;;;;;;;;;;-1.82;52.57;100967.56;5094168;28;869;-56
2022/01/25 09:08:01;;;;;;;;;;;;;;;-1.64;52.15;100974.94;5093978;28;870;-56
2022/01/25 09:10:28;;;;;;;;;;;;;;;-1.73;52.04;100966.63;5093965;28;897;-56
2022/01/25 09:12:55;;;;;;;;;;;;;;;-1.68;51.30;100960.34;5093748;28;850;-56
2022/01/25 09:15:22;;;;;;;;;;;;;;;-1.70;52.23;100954.41;5093667;28;1241;-56
2022/01/25 09:17:48;;;;;;;;;;;;;;;-1.44;52.53;100950.22;5093719;28;1973;-56
2022/01/25 09:20:16;;;;;;;;;;;;;;;-1.30;52.02;100944.88;5093747;28;842;-56
2022/01/25 09:22:42;;;;;;;;;;;;;;;-0.91;52.06;100945.63;5093659;28;940;-56
2022/01/25 09:25:12;;;;;;;;;;;;;;;-0.47;50.94;100936.97;5093913;28;933;-56
2022/01/25 09:27:38;;;;;;;;;;;;;;;-0.84;49.48;100941.41;5093624;28;973;-56
2022/01/25 09:30:05;;;;;;;;;;;;;;;-0.98;51.09;100928.91;5093583;28;1252;-56
2022/01/25 09:32:32;;;;;;;;;;;;;;;-1.34;51.07;100924.06;5093730;28;854;-56
2022/01/25 09:34:59;;;;;;;;;;;;;;;-1.63;51.35;100914.16;5093461;28;920;-56
2022/01/25 09:37:25;;;;;;;;;;;;;;;-1.59;52.81;100908.97;5093238;28;1898;-56
2022/01/25 09:39:52;;;;;;;;;;;;;;;-1.52;52.03;100904.78;5093357;28;913;-56
2022/01/25 09:42:20;;;;;;;;;;;;;;;-1.27;51.89;100902.78;5093233;28;842;-56
2022/01/25 09:44:47;;;;;;;;;;;;;;;-1.25;51.84;100895.16;5093189;28;949;-56
2022/01/25 09:47:13;;;;;;;;;;;;;;;-1.14;50.07;100891.16;5093170;28;886;-56
2022/01/25 09:49:40;;;;;;;;;;;;;;;-1.09;50.86;100885.66;5093062;28;885;-56
2022/01/25 09:52:08;;;;;;;;;;;;;;;-0.99;50.59;100890.09;5093175;28;826;-56
2022/01/25 09:54:35;;;;;;;;;;;;;;;-1.06;49.36;100889.69;5092979;28;909;-56
2022/01/25 09:57:04;;;;;;;;;;;;;;;-0.99;48.94;100886.59;5092961;28;1945;-56
2022/01/25 09:59:30;;;;;;;;;;;;;;;-0.82;49.15;100879.47;5093208;28;842;-55
2022/01/25 10:01:57;;;;;;;;;;;;;;;-0.67;48.85;100870.25;5093619;28;782;-55
2022/01/25 10:04:29;;;;;;;;;;;;;;;-0.54;49.38;100862.41;5093733;28;787;-55
2022/01/25 10:06:56;;;;;;;;;;;;;;;-0.58;49.08;100856.75;5092768;28;957;-55
2022/01/25 10:09:24;;;;;;;;;;;;;;;-0.78;47.84;100860.69;5091621;28;928;-55
2022/01/25 10:11:50;;;;;;;;;;;;;;;-0.84;48.95;100846.41;5092628;28;947;-55
2022/01/25 10:14:18;;;;;;;;;;;;;;;-0.87;48.02;100857.88;5092872;28;830;-56
2022/01/25 10:16:52;;;;;;;;;;;;;;;-0.95;47.34;100847.69;5092297;28;1989;-55
2022/01/25 10:19:22;;;;;;;;;;;;;;;-0.45;47.82;100853.25;5092576;28;956;-55
2022/01/25 10:21:51;;;;;;;;;;;;;;;-0.29;46.83;100853.75;5092586;28;890;-56
2022/01/25 10:24:23;;;;;;;;;;;;;;;-0.32;47.16;100848.09;5092529;28;873;-56
2022/01/25 10:26:49;;;;;;;;;;;;;;;-0.50;47.76;100850.63;5092638;28;894;-56
2022/01/25 10:29:20;;;;;;;;;;;;;;;-0.26;48.02;100844.97;5092887;28;997;-56
2022/01/25 10:31:49;;;;;;;;;;;;;;;-0.41;46.96;100839.88;5092463;28;897;-55
2022/01/25 10:34:20;;;;;;;;;;;;;;;-0.50;48.56;100847.13;5092351;28;890;-56
2022/01/25 10:36:48;;;;;;;;;;;;;;;-0.28;46.88;100844.50;5092240;28;1886;-56
2022/01/25 10:39:35;;;;;;;;;;;;;;;-0.37;46.19;100835.44;5092191;28;882;-56
2022/01/25 10:42:03;;;;;;;;;;;;;;;-0.53;46.18;100836.88;5091580;27;1863;-56
2022/01/25 10:44:50;;;;;;;;;;;;;;;-0.19;46.26;100819.31;5092084;28;1040;-56
2022/01/25 10:47:17;;;;;;;;;;;;;;;-0.36;46.05;100828.09;5092089;28;1365;-56
2022/01/25 10:49:45;;;;;;;;;;;;;;;-0.22;46.53;100821.53;5090766;28;1179;-56
2022/01/25 10:52:11;;;;;;;;;;;;;;;-0.18;45.98;100812.78;5092082;28;806;-56
2022/01/25 10:54:39;;;;;;;;;;;;;;;0.05;46.69;100806.25;5092017;28;874;-56
2022/01/25 10:57:15;;;;;;;;;;;;;;;0.35;45.93;100803.94;5091850;28;1897;-56
2022/01/25 10:59:42;;;;;;;;;;;;;;;0.10;46.15;100805.34;5092130;28;810;-56
2022/01/25 11:02:09;;;;;;;;;;;;;;;0.23;45.97;100781.94;5091830;28;908;-56
2022/01/25 11:04:39;;;;;;;;;;;;;;;0.00;46.21;100792.81;5092477;28;867;-56
2022/01/25 11:07:07;;;;;;;;;;;;;;;0.01;47.42;100786.25;5124738;27;853;-58
2022/01/25 11:09:42;;;;;;;;;;;;;;;-0.07;46.29;100781.53;5091765;28;818;-58
2022/01/25 11:12:14;;;;;;;;;;;;;;;-0.08;46.67;100779.94;5091696;28;980;-58
2022/01/25 11:14:59;;;;;;;;;;;;;;;-0.13;46.55;100772.69;5091664;28;924;-58
2022/01/25 11:17:28;;;;;;;;;;;;;;;-0.28;46.06;100792.06;5091605;28;1994;-58
2022/01/25 11:19:56;;;;;;;;;;;;;;;-0.32;46.71;100794.59;5091574;28;905;-58
2022/01/25 11:22:23;;;;;;;;;;;;;;;-0.49;45.59;100783.53;5091615;28;878;-56
2022/01/25 11:24:52;;;;;;;;;;;;;;;-0.51;47.09;100786.56;5091598;28;841;-56
2022/01/25 11:27:20;;;;;;;;;;;;;;;-0.35;46.66;100781.59;5091640;28;815;-56
2022/01/25 11:29:49;;;;;;;;;;;;;;;-0.33;46.57;100765.00;5091546;28;890;-56
2022/01/25 11:32:18;;;;;;;;;;;;;;;-0.27;45.66;100764.59;5092002;28;794;-56
2022/01/25 11:34:45;;;;;;;;;;;;;;;-0.21;46.73;100754.41;5090284;28;830;-57
2022/01/25 11:37:12;;;;;;;;;;;;;;;-0.09;46.29;100754.66;5091482;28;1947;-56
2022/01/25 11:39:44;;;;;;;;;;;;;;;0.12;45.56;100748.75;5091275;28;1018;-58
2022/01/25 11:42:14;;;;;;;;;;;;;;;0.35;45.49;100746.84;5091555;28;893;-56
2022/01/25 11:44:49;;;;;;;;;;;;;;;0.67;45.11;100747.66;5091584;28;834;-56
2022/01/25 11:47:17;;;;;;;;;;;;;;;0.44;44.36;100750.41;5091356;28;867;-56
2022/01/25 11:49:58;;;;;;;;;;;;;;;0.15;45.07;100748.94;5091305;28;837;-56
2022/01/25 11:52:26;;;;;;;;;;;;;;;0.24;45.73;100742.75;5091642;28;866;-56
2022/01/25 11:54:53;;;;;;;;;;;;;;;0.53;45.75;100748.53;5094785;28;925;-58
2022/01/25 11:57:22;;;;;;;;;;;;;;;0.63;44.97;100724.91;5095298;28;1961;-57
2022/01/25 11:59:53;;;;;;;;;;;;;;;0.39;45.33;100724.13;5095479;28;818;-58
2022/01/25 12:02:54;;;;;;;;;;;;;;;0.56;45.69;100717.97;5095214;28;803;-59
2022/01/25 12:05:27;;;;;;;;;;;;;;;0.30;44.97;100722.47;5072734;28;1230;-58
2022/01/25 12:08:06;;;;;;;;;;;;;;;0.36;45.23;100722.06;5072642;28;1118;-57
2022/01/25 12:10:37;;;;;;;;;;;;;;;-0.01;45.63;100718.59;5072482;28;949;-57
2022/01/25 12:13:12;;;;;;;;;;;;;;;-0.18;45.26;100731.25;5072548;28;1063;-58
2022/01/25 12:15:39;;;;;;;;;;;;;;;-0.28;46.35;100724.97;5068363;28;1187;-57
2022/01/25 12:18:08;;;;;;;;;;;;;;;-0.19;46.33;100716.03;5052627;28;1973;-57
2022/01/25 12:20:45;;;;;;;;;;;;;;;0.04;46.31;100731.25;5052602;28;1082;-57
2022/01/25 12:23:20;;;;;;;;;;;;;;;0.54;45.23;100722.13;5052443;28;914;-58
2022/01/25 12:25:51;;;;;;;;;;;;;;;1.17;44.68;100715.50;5052492;28;955;-57
2022/01/25 12:28:30;;;;;;;;;;;;;;;1.16;43.53;100697.53;5052330;28;887;-58
2022/01/25 12:31:00;;;;;;;;;;;;;;;1.38;43.24;100699.34;5036240;28;926;-57
2022/01/25 12:33:32;;;;;;;;;;;;;;;1.44;42.64;100705.44;5052273;28;894;-57
2022/01/25 12:36:03;;;;;;;;;;;;;;;1.37;42.71;100700.47;5052366;28;1945;-57
2022/01/25 12:38:39;;;;;;;;;;;;;;;1.45;42.42;100703.50;5052698;28;1202;-58
2022/01/25 12:41:05;;;;;;;;;;;;;;;0.80;43.08;100704.00;5054585;28;932;-58
2022/01/25 12:43:34;;;;;;;;;;;;;;;1.26;43.21;100698.34;5054223;28;955;-58
2022/01/25 12:46:04;;;;;;;;;;;;;;;1.45;42.57;100693.41;5054319;28;931;-58
2022/01/25 12:48:33;;;;;;;;;;;;;;;1.16;42.83;100704.91;5054245;28;881;-58
2022/01/25 12:51:04;;;;;;;;;;;;;;;1.66;43.16;100700.97;5054046;28;952;-58
2022/01/25 12:53:32;;;;;;;;;;;;;;;2.23;42.11;100693.38;5054063;28;901;-58
2022/01/25 12:55:59;;;;;;;;;;;;;;;2.14;41.33;100689.06;5053944;28;1906;-57
2022/01/25 12:58:29;;;;;;;;;;;;;;;1.76;41.53;100695.19;5054019;28;898;-58
2022/01/25 13:01:03;;;;;;;;;;;;;;;1.21;40.90;100700.09;5053914;28;807;-56
2022/01/25 13:03:35;;;;;;;;;;;;;;;1.10;41.11;100693.34;5053977;28;873;-58
2022/01/25 13:06:08;;;;;;;;;;;;;;;1.30;40.59;100688.44;5053172;28;828;-58
2022/01/25 13:08:37;;;;;;;;;;;;;;;1.13;40.91;100692.75;5053752;28;854;-58
2022/01/25 13:11:17;;;;;;;;;;;;;;;0.82;41.54;100690.88;5053690;28;855;-56
2022/01/25 13:14:16;;;;;;;;;;;;;;;1.11;42.03;100692.25;5053604;28;920;-56
2022/01/25 13:16:51;;;;;;;;;;;;;;;1.51;41.00;100688.63;5079063;28;1979;-57
2022/01/25 13:19:20;;;;;;;;;;;;;;;1.87;41.02;100682.84;5093778;28;894;-58
2022/01/25 13:21:55;;;;;;;;;;;;;;;1.74;41.13;100692.00;5093666;28;1019;-57
2022/01/25 13:24:24;;;;;;;;;;;;;;;1.50;40.83;100687.81;5093810;28;847;-58
2022/01/25 13:26:50;;;;;;;;;;;;;;;1.30;41.94;100685.69;5093793;28;905;-58
2022/01/25 13:32:16;;;;;;;;;;;;;;;0.62;42.21;100683.28;5082908;28;997;-58
2022/01/25 13:34:43;;;;;;;;;;;;;;;-0.08;43.07;100682.91;5093740;28;918;-58
2022/01/25 13:37:21;;;;;;;;;;;;;;;-0.74;44.46;100682.50;5093240;28;1952;-58
2022/01/25 13:39:56;;;;;;;;;;;;;;;-0.98;45.30;100685.47;5093455;28;806;-58
2022/01/25 13:42:44;;;;;;;;;;;;;;;-1.13;45.37;100688.47;5093275;28;917;-58
2022/01/25 13:48:15;;;;;;;;;;;;;;;-1.34;46.18;100682.66;5050884;28;1435;-57
2022/01/25 13:50:42;;;;;;;;;;;;;;;-1.33;46.47;100671.50;5050904;28;873;-58
2022/01/25 13:53:09;;;;;;;;;;;;;;;-1.33;46.68;100676.13;5050782;28;1025;-58
2022/01/25 13:55:36;;;;;;;;;;;;;;;-1.34;47.15;100686.19;5050817;28;799;-57
2022/01/25 13:58:17;;;;;;;;;;;;;;;-1.28;47.35;100678.72;5050631;28;1886;-58
2022/01/25 14:00:44;;;;;;;;;;;;;;;-1.18;47.77;100681.25;5050745;28;1422;-58
2022/01/25 14:03:10;;;;;;;;;;;;;;;-1.18;47.18;100685.88;5050780;28;807;-58
2022/01/25 14:05:37;;;;;;;;;;;;;;;-1.19;47.18;100684.28;5050568;28;1060;-57
2022/01/25 14:08:03;;;;;;;;;;;;;;;-1.16;46.84;100680.94;5050423;28;811;-57
2022/01/25 14:10:30;;;;;;;;;;;;;;;-1.06;46.68;100680.75;5050564;28;858;-57
2022/01/25 14:24:04;;;;;;;;;;;;;;;-1.38;47.61;100677.03;5051571;28;1433;-56
2022/01/25 14:26:31;;;;;;;;;;;;;;;-1.42;48.15;100673.31;5052331;28;878;-57
2022/01/25 14:29:07;;;;;;;;;;;;;;;-1.57;48.64;100673.59;5052283;28;866;-56
2022/01/25 14:31:38;;;;;;;;;;;;;;;-1.72;48.70;100674.69;5052271;28;917;-56
2022/01/25 14:34:06;;;;;;;;;;;;;;;-1.82;49.71;100672.16;5052082;28;846;-56
2022/01/25 14:36:32;;;;;;;;;;;;;;;-1.93;49.57;100671.53;5050752;28;1989;-56
2022/01/25 14:38:59;;;;;;;;;;;;;;;-2.04;49.41;100667.38;5052022;28;850;-56
2022/01/25 14:41:31;;;;;;;;;;;;;;;-2.13;49.64;100664.56;5052100;28;806;-56
2022/01/25 14:44:04;;;;;;;;;;;;;;;-2.19;49.80;100665.72;5052268;28;806;-56
2022/01/25 14:46:35;;;;;;;;;;;;;;;-2.27;50.17;100667.19;5052227;28;862;-56
2022/01/25 14:49:06;;;;;;;;;;;;;;;-2.36;50.86;100669.78;5051932;28;962;-56
2022/01/25 14:51:59;;;;;;;;;;;;;;;-2.27;51.02;100659.06;5051933;28;823;-56